createdAt,value
2017-05-04T00:01:03.717Z,9.30
2017-05-04T00:03:32.641Z,9.30
2017-05-04T00:06:01.505Z,9.30
2017-05-04T00:08:30.409Z,9.20
2017-05-04T00:10:59.292Z,9.10
2017-05-04T00:13:28.180Z,9.10
2017-05-04T00:15:57.118Z,9.10
2017-05-04T00:18:26.741Z,9.00
2017-05-04T00:20:55.629Z,9.10
2017-05-04T00:23:24.552Z,9.00
2017-05-04T00:25:53.444Z,9.00
2017-05-04T00:28:22.329Z,8.90
2017-05-04T00:30:51.342Z,8.90
2017-05-04T00:33:20.233Z,8.90
2017-05-04T00:35:49.122Z,8.90
2017-05-04T00:38:18.033Z,9.00
2017-05-04T00:40:46.917Z,8.90
2017-05-04T00:43:15.806Z,8.80
2017-05-04T00:45:45.078Z,8.70
2017-05-04T00:48:13.966Z,8.70
2017-05-04T00:50:42.850Z,8.70
2017-05-04T00:53:12.060Z,8.50
2017-05-04T00:55:40.947Z,8.50
2017-05-04T00:58:09.828Z,8.50
2017-05-04T01:00:38.755Z,8.60
2017-05-04T01:03:07.636Z,8.60
2017-05-04T01:05:36.521Z,8.70
2017-05-04T01:08:05.432Z,8.80
2017-05-04T01:10:34.320Z,8.80
2017-05-04T01:13:03.199Z,8.70
2017-05-04T01:15:32.200Z,8.80
2017-05-04T01:18:01.081Z,8.70
2017-05-04T01:20:29.966Z,8.80
2017-05-04T01:22:58.979Z,8.80
2017-05-04T01:25:27.860Z,8.70
2017-05-04T01:27:56.744Z,8.80
2017-05-04T01:30:25.935Z,8.70
2017-05-04T01:32:54.813Z,8.70
2017-05-04T01:35:23.692Z,8.70
2017-05-04T01:37:52.601Z,8.70
2017-05-04T01:40:21.490Z,8.70
2017-05-04T01:42:50.376Z,8.70
2017-05-04T01:45:19.285Z,8.70
2017-05-04T01:47:48.174Z,8.70
2017-05-04T01:50:17.182Z,8.60
2017-05-04T01:52:46.069Z,8.50
2017-05-04T01:55:14.955Z,8.50
2017-05-04T01:57:43.865Z,8.50
2017-05-04T02:00:12.748Z,8.50
2017-05-04T02:02:41.633Z,8.40
2017-05-04T02:05:10.811Z,8.30
2017-05-04T02:07:39.692Z,8.30
2017-05-04T02:10:08.577Z,8.40
2017-05-04T02:12:37.713Z,8.40
2017-05-04T02:15:06.592Z,8.40
2017-05-04T02:17:35.468Z,8.40
2017-05-04T02:20:04.377Z,8.40
2017-05-04T02:22:33.257Z,8.40
2017-05-04T02:25:02.182Z,8.30
2017-05-04T02:27:31.060Z,8.40
2017-05-04T02:29:59.947Z,8.30
2017-05-04T02:32:28.961Z,8.40
2017-05-04T02:34:57.841Z,8.30
2017-05-04T02:37:26.729Z,8.20
2017-05-04T02:39:55.734Z,8.20
2017-05-04T02:42:24.608Z,8.20
2017-05-04T02:44:53.490Z,8.20
2017-05-04T02:47:22.396Z,8.20
2017-05-04T02:49:51.274Z,8.20
2017-05-04T02:52:20.160Z,8.10
2017-05-04T02:54:49.446Z,8.10
2017-05-04T02:57:18.325Z,8.00
2017-05-04T02:59:47.209Z,8.00
2017-05-04T03:02:16.213Z,8.00
2017-05-04T03:04:45.093Z,8.00
2017-05-04T03:07:13.976Z,7.90
2017-05-04T03:09:43.195Z,7.90
2017-05-04T03:12:12.071Z,7.80
2017-05-04T03:14:40.953Z,7.80
2017-05-04T03:17:09.965Z,7.70
2017-05-04T03:19:38.849Z,7.70
2017-05-04T03:22:07.729Z,7.70
2017-05-04T03:24:36.727Z,7.70
2017-05-04T03:27:05.605Z,7.80
2017-05-04T03:29:35.229Z,7.70
2017-05-04T03:32:04.441Z,7.80
2017-05-04T03:34:33.320Z,7.70
2017-05-04T03:37:02.204Z,7.70
2017-05-04T03:39:31.117Z,7.60
2017-05-04T03:41:59.989Z,7.70
2017-05-04T03:44:28.868Z,7.70
2017-05-04T03:46:57.868Z,7.60
2017-05-04T03:49:26.791Z,7.60
2017-05-04T03:51:55.674Z,7.50
2017-05-04T03:54:24.575Z,7.60
2017-05-04T03:56:53.447Z,7.60
2017-05-04T03:59:22.320Z,7.60
2017-05-04T04:01:51.226Z,7.50
2017-05-04T04:04:20.121Z,7.60
2017-05-04T04:06:48.988Z,7.70
2017-05-04T04:09:17.901Z,7.60
2017-05-04T04:11:46.774Z,7.60
2017-05-04T04:14:15.662Z,7.60
2017-05-04T04:16:44.664Z,7.60
2017-05-04T04:19:13.540Z,7.70
2017-05-04T04:21:42.424Z,7.70
2017-05-04T04:24:12.173Z,7.70
2017-05-04T04:26:42.128Z,7.70
2017-05-04T04:29:11.082Z,7.80
2017-05-04T04:31:39.984Z,7.80
2017-05-04T04:34:08.861Z,7.80
2017-05-04T04:36:37.860Z,7.80
2017-05-04T04:39:06.745Z,7.90
2017-05-04T04:41:35.616Z,8.00
2017-05-04T04:44:04.828Z,8.10
2017-05-04T04:46:33.713Z,8.10
2017-05-04T04:49:02.597Z,8.20
2017-05-04T04:51:31.809Z,8.20
2017-05-04T04:54:00.695Z,8.30
2017-05-04T04:56:29.577Z,8.40
2017-05-04T04:58:58.588Z,8.50
2017-05-04T05:01:27.468Z,8.50
2017-05-04T05:03:56.359Z,8.60
2017-05-04T05:06:25.485Z,8.70
2017-05-04T05:08:54.380Z,8.70
2017-05-04T05:11:23.256Z,8.80
2017-05-04T05:13:52.176Z,8.90
2017-05-04T05:16:21.061Z,9.00
2017-05-04T05:18:49.948Z,9.00
2017-05-04T05:21:18.957Z,9.20
2017-05-04T05:23:47.845Z,9.30
2017-05-04T05:26:16.729Z,9.30
2017-05-04T05:28:45.741Z,9.40
2017-05-04T05:31:15.371Z,9.50
2017-05-04T05:33:44.250Z,9.60
2017-05-04T05:36:13.164Z,9.70
2017-05-04T05:38:42.049Z,9.80
2017-05-04T05:41:11.161Z,9.90
2017-05-04T05:43:40.048Z,9.90
2017-05-04T05:46:08.943Z,10.10
2017-05-04T05:48:37.993Z,10.20
2017-05-04T05:51:07.620Z,10.20
2017-05-04T05:53:36.505Z,10.40
2017-05-04T05:56:05.831Z,10.50
2017-05-04T05:58:34.716Z,10.60
2017-05-04T06:01:03.610Z,10.70
2017-05-04T06:03:32.625Z,10.90
2017-05-04T06:06:01.509Z,11.10
2017-05-04T06:08:30.406Z,11.10
2017-05-04T06:10:59.421Z,11.20
2017-05-04T06:13:28.301Z,11.20
2017-05-04T06:15:57.188Z,11.40
2017-05-04T06:18:26.209Z,11.40
2017-05-04T06:20:55.086Z,11.60
2017-05-04T06:23:24.012Z,11.70
2017-05-04T06:25:53.109Z,11.80
2017-05-04T06:28:22.725Z,12.00
2017-05-04T06:30:51.644Z,12.20
2017-05-04T06:33:20.651Z,12.40
2017-05-04T06:35:49.544Z,12.50
2017-05-04T06:38:18.423Z,12.70
2017-05-04T06:40:47.443Z,12.70
2017-05-04T06:43:16.322Z,12.80
2017-05-04T06:45:45.216Z,12.90
2017-05-04T06:48:14.154Z,12.80
2017-05-04T06:50:43.033Z,12.80
2017-05-04T06:53:12.660Z,12.80
2017-05-04T06:55:41.573Z,12.70
2017-05-04T06:58:10.491Z,12.60
2017-05-04T07:00:39.506Z,12.50
2017-05-04T07:03:09.125Z,12.40
2017-05-04T07:05:38.749Z,12.30
2017-05-04T07:08:07.661Z,12.30
2017-05-04T07:10:36.548Z,12.30
2017-05-04T07:13:05.436Z,12.50
2017-05-04T07:15:34.636Z,12.50
2017-05-04T07:18:03.516Z,12.60
2017-05-04T07:20:32.415Z,12.60
2017-05-04T07:23:01.424Z,12.50
2017-05-04T07:25:30.309Z,12.40
2017-05-04T07:27:59.201Z,12.40
2017-05-04T07:30:28.122Z,12.40
2017-05-04T07:32:57.008Z,12.40
2017-05-04T07:35:25.893Z,12.40
2017-05-04T07:37:54.884Z,12.40
2017-05-04T07:40:23.768Z,12.50
2017-05-04T07:42:52.653Z,12.60
2017-05-04T07:45:21.560Z,12.60
2017-05-04T07:47:50.444Z,12.60
2017-05-04T07:50:19.328Z,12.70
2017-05-04T07:52:48.240Z,12.80
2017-05-04T07:55:17.124Z,12.90
2017-05-04T07:57:46.006Z,13.10
2017-05-04T08:00:15.022Z,13.10
2017-05-04T08:02:43.912Z,13.10
2017-05-04T08:05:12.791Z,13.20
2017-05-04T08:07:41.906Z,13.30
2017-05-04T08:10:10.826Z,13.40
2017-05-04T08:12:39.712Z,13.30
2017-05-04T08:15:09.673Z,13.40
2017-05-04T08:17:38.556Z,13.50
2017-05-04T08:20:07.444Z,13.60
2017-05-04T08:22:36.633Z,13.70
2017-05-04T08:25:05.509Z,13.70
2017-05-04T08:27:34.393Z,13.70
2017-05-04T08:30:03.408Z,14.00
2017-05-04T08:32:32.293Z,14.10
2017-05-04T08:35:01.177Z,14.10
2017-05-04T08:37:30.092Z,14.10
2017-05-04T08:39:59.456Z,14.20
2017-05-04T08:42:28.468Z,14.30
2017-05-04T08:44:57.353Z,14.50
2017-05-04T08:47:26.236Z,14.60
2017-05-04T08:49:55.257Z,14.70
2017-05-04T08:52:24.141Z,14.70
2017-05-04T08:54:53.029Z,14.80
2017-05-04T08:57:22.042Z,14.90
2017-05-04T08:59:50.925Z,15.00
2017-05-04T09:02:19.808Z,15.20
2017-05-04T09:04:49.001Z,15.40
2017-05-04T09:07:17.881Z,15.50
2017-05-04T09:09:46.764Z,15.50
2017-05-04T09:12:16.084Z,15.60
2017-05-04T09:14:44.961Z,15.80
2017-05-04T09:17:13.849Z,16.00
2017-05-04T09:19:42.758Z,16.20
2017-05-04T09:22:11.643Z,16.40
2017-05-04T09:24:40.520Z,16.40
2017-05-04T09:27:09.423Z,16.70
2017-05-04T09:29:38.316Z,16.70
2017-05-04T09:32:07.437Z,16.90
2017-05-04T09:34:36.325Z,16.80
2017-05-04T09:37:05.202Z,16.90
2017-05-04T09:39:34.124Z,16.90
2017-05-04T09:42:03.006Z,17.10
2017-05-04T09:44:31.889Z,17.20
2017-05-04T09:47:00.894Z,17.40
2017-05-04T09:49:29.767Z,17.70
2017-05-04T09:51:58.640Z,18.00
2017-05-04T09:54:27.843Z,18.20
2017-05-04T09:56:56.704Z,18.40
2017-05-04T09:59:25.578Z,18.60
2017-05-04T10:01:55.620Z,18.60
2017-05-04T10:04:24.497Z,18.60
2017-05-04T10:06:54.117Z,18.60
2017-05-04T10:09:23.027Z,18.80
2017-05-04T10:11:51.893Z,18.60
2017-05-04T10:14:20.765Z,18.40
2017-05-04T10:16:50.489Z,18.30
2017-05-04T10:19:20.100Z,18.40
2017-05-04T10:21:48.981Z,18.30
2017-05-04T10:24:18.722Z,18.30
2017-05-04T10:26:47.588Z,18.50
2017-05-04T10:29:16.466Z,18.50
2017-05-04T10:31:46.210Z,18.60
2017-05-04T10:34:15.098Z,18.50
2017-05-04T10:36:43.961Z,18.50
2017-05-04T10:39:13.597Z,18.60
2017-05-04T10:41:42.473Z,18.80
2017-05-04T10:44:11.341Z,19.10
2017-05-04T10:46:40.981Z,19.60
2017-05-04T10:49:09.864Z,19.90
2017-05-04T10:51:38.733Z,19.80
2017-05-04T10:54:08.685Z,20.00
2017-05-04T10:56:37.557Z,20.10
2017-05-04T10:59:06.429Z,20.10
2017-05-04T11:01:36.179Z,20.10
2017-05-04T11:04:05.313Z,20.40
2017-05-04T11:06:34.195Z,20.70
2017-05-04T11:09:03.197Z,20.90
2017-05-04T11:11:32.070Z,21.10
2017-05-04T11:14:00.941Z,21.00
2017-05-04T11:16:30.339Z,21.50
2017-05-04T11:18:59.208Z,21.70
2017-05-04T11:21:28.085Z,22.20
2017-05-04T11:23:57.838Z,22.20
2017-05-04T11:26:26.720Z,22.50
2017-05-04T11:28:55.584Z,22.60
2017-05-04T11:31:24.709Z,22.90
2017-05-04T11:33:53.601Z,23.10
2017-05-04T11:36:22.473Z,23.30
2017-05-04T11:38:51.375Z,23.70
2017-05-04T11:41:20.245Z,23.80
2017-05-04T11:43:49.893Z,24.10
2017-05-04T11:46:18.766Z,23.50
2017-05-04T11:48:47.637Z,23.10
2017-05-04T11:51:16.628Z,22.70
2017-05-04T11:53:45.505Z,22.50
2017-05-04T11:56:15.120Z,22.00
2017-05-04T11:58:44.774Z,21.80
2017-05-04T12:01:13.949Z,21.70
2017-05-04T12:03:42.866Z,21.70
2017-05-04T12:06:12.165Z,21.30
2017-05-04T12:08:41.046Z,21.10
2017-05-04T12:11:09.921Z,20.80
2017-05-04T12:13:38.817Z,20.60
2017-05-04T12:16:07.707Z,20.30
2017-05-04T12:18:36.572Z,20.20
2017-05-04T12:21:05.577Z,20.10
2017-05-04T12:23:34.454Z,20.10
2017-05-04T12:26:04.069Z,19.80
2017-05-04T12:28:33.072Z,19.60
2017-05-04T12:31:01.949Z,19.20
2017-05-04T12:33:31.572Z,19.30
2017-05-04T12:36:00.481Z,19.30
2017-05-04T12:38:29.357Z,19.00
2017-05-04T12:40:58.236Z,18.70
2017-05-04T12:43:27.350Z,18.40
2017-05-04T12:45:56.221Z,18.30
2017-05-04T12:48:25.097Z,18.00
2017-05-04T12:50:54.840Z,17.90
2017-05-04T12:53:23.720Z,17.80
2017-05-04T12:55:52.589Z,17.70
2017-05-04T12:58:22.329Z,17.30
2017-05-04T13:00:51.201Z,17.20
2017-05-04T13:03:20.068Z,17.10
2017-05-04T13:05:49.718Z,17.10
2017-05-04T13:08:18.584Z,17.00
2017-05-04T13:10:47.468Z,16.90
2017-05-04T13:13:17.209Z,16.90
2017-05-04T13:15:46.097Z,16.90
2017-05-04T13:18:14.970Z,17.20
2017-05-04T13:20:43.982Z,17.40
2017-05-04T13:23:12.860Z,17.60
2017-05-04T13:25:41.741Z,17.70
2017-05-04T13:28:11.396Z,17.80
2017-05-04T13:30:40.273Z,17.90
2017-05-04T13:33:09.152Z,18.50
2017-05-04T13:35:38.052Z,21.60
2017-05-04T13:38:06.929Z,25.90
2017-05-04T13:40:35.808Z,28.50
2017-05-04T13:43:04.813Z,30.10
2017-05-04T13:45:33.685Z,31.50
2017-05-04T13:48:02.577Z,33.10
2017-05-04T13:50:32.310Z,33.10
2017-05-04T13:53:01.186Z,33.20
2017-05-04T13:55:30.064Z,32.90
2017-05-04T13:57:59.709Z,33.40
2017-05-04T14:00:28.581Z,32.70
2017-05-04T14:02:57.452Z,30.20
2017-05-04T14:05:26.533Z,27.60
2017-05-04T14:07:55.409Z,25.50
2017-05-04T14:10:24.326Z,24.30
2017-05-04T14:12:53.940Z,23.40
2017-05-04T14:15:23.552Z,23.00
2017-05-04T14:17:52.454Z,24.00
2017-05-04T14:20:21.328Z,25.00
2017-05-04T14:22:50.205Z,25.10
2017-05-04T14:25:19.946Z,24.40
2017-05-04T14:27:48.816Z,24.50
2017-05-04T14:30:18.433Z,24.70
2017-05-04T14:32:47.666Z,24.70
2017-05-04T14:35:16.544Z,24.40
2017-05-04T14:37:45.420Z,23.80
2017-05-04T14:40:14.325Z,23.10
2017-05-04T14:42:43.207Z,22.40
2017-05-04T14:45:12.130Z,21.90
2017-05-04T14:47:41.249Z,21.50
2017-05-04T14:50:10.118Z,21.90
2017-05-04T14:52:38.997Z,22.10
2017-05-04T14:55:08.177Z,21.60
2017-05-04T14:57:37.046Z,21.40
2017-05-04T15:00:05.924Z,21.50
2017-05-04T15:02:35.979Z,21.20
2017-05-04T15:05:04.849Z,21.10
2017-05-04T15:07:33.820Z,21.20
2017-05-04T15:10:03.465Z,21.10
2017-05-04T15:12:32.337Z,21.00
2017-05-04T15:15:01.213Z,20.70
2017-05-04T15:17:30.856Z,20.10
2017-05-04T15:19:59.841Z,19.80
2017-05-04T15:22:28.757Z,19.60
2017-05-04T15:24:57.632Z,19.20
2017-05-04T15:27:26.507Z,19.00
2017-05-04T15:29:55.522Z,18.80
2017-05-04T15:32:24.398Z,18.60
2017-05-04T15:34:53.281Z,18.50
2017-05-04T15:37:22.486Z,18.30
2017-05-04T15:39:51.361Z,18.20
2017-05-04T15:42:20.236Z,18.00
2017-05-04T15:44:49.888Z,17.90
2017-05-04T15:47:18.773Z,17.90
2017-05-04T15:49:47.646Z,17.90
2017-05-04T15:52:16.933Z,18.00
2017-05-04T15:54:45.817Z,18.00
2017-05-04T15:57:14.703Z,18.00
2017-05-04T15:59:43.913Z,18.00
2017-05-04T16:02:12.804Z,18.10
2017-05-04T16:04:41.676Z,18.20
2017-05-04T16:07:10.572Z,18.10
2017-05-04T16:09:39.476Z,18.20
2017-05-04T16:12:09.064Z,18.30
2017-05-04T16:14:38.057Z,18.40
2017-05-04T16:17:06.928Z,18.50
2017-05-04T16:19:36.561Z,18.30
2017-05-04T16:22:05.461Z,18.40
2017-05-04T16:24:34.337Z,18.30
2017-05-04T16:27:03.209Z,18.20
2017-05-04T16:29:32.949Z,18.20
2017-05-04T16:32:01.821Z,18.20
2017-05-04T16:34:31.441Z,18.20
2017-05-04T16:37:00.449Z,18.20
2017-05-04T16:39:29.316Z,18.20
2017-05-04T16:41:58.195Z,18.10
2017-05-04T16:44:27.836Z,18.10
2017-05-04T16:46:56.712Z,18.10
2017-05-04T16:49:25.585Z,18.00
2017-05-04T16:51:55.224Z,18.00
2017-05-04T16:54:24.092Z,17.90
2017-05-04T16:56:52.968Z,17.90
2017-05-04T16:59:22.713Z,17.80
2017-05-04T17:01:51.588Z,17.90
2017-05-04T17:04:20.476Z,17.90
2017-05-04T17:06:50.515Z,17.80
2017-05-04T17:09:19.392Z,17.80
2017-05-04T17:11:48.265Z,17.80
2017-05-04T17:14:18.012Z,17.70
2017-05-04T17:16:46.900Z,17.70
2017-05-04T17:19:15.786Z,17.70
2017-05-04T17:21:44.903Z,17.70
2017-05-04T17:24:13.783Z,17.80
2017-05-04T17:26:42.657Z,17.70
2017-05-04T17:29:11.655Z,17.70
2017-05-04T17:31:40.528Z,17.70
2017-05-04T17:34:09.412Z,17.70
2017-05-04T17:36:39.149Z,17.60
2017-05-04T17:39:08.021Z,17.50
2017-05-04T17:41:36.901Z,17.50
2017-05-04T17:44:05.808Z,17.50
2017-05-04T17:46:34.681Z,17.50
2017-05-04T17:49:04.321Z,17.40
2017-05-04T17:51:33.317Z,17.40
2017-05-04T17:54:02.192Z,17.30
2017-05-04T17:56:31.069Z,17.30
2017-05-04T17:59:00.289Z,17.20
2017-05-04T18:01:29.167Z,17.10
2017-05-04T18:03:58.043Z,17.10
2017-05-04T18:06:27.269Z,17.10
2017-05-04T18:08:56.141Z,17.00
2017-05-04T18:11:25.021Z,17.00
2017-05-04T18:13:54.965Z,16.90
2017-05-04T18:16:23.840Z,16.80
2017-05-04T18:18:52.726Z,16.80
2017-05-04T18:21:21.733Z,16.70
2017-05-04T18:23:50.609Z,16.70
2017-05-04T18:26:20.247Z,16.60
2017-05-04T18:28:49.144Z,16.50
2017-05-04T18:31:18.018Z,16.50
2017-05-04T18:33:47.032Z,16.40
2017-05-04T18:36:15.911Z,16.40
2017-05-04T18:38:44.780Z,16.30
2017-05-04T18:41:13.784Z,16.20
2017-05-04T18:43:42.662Z,16.10
2017-05-04T18:46:11.536Z,16.00
2017-05-04T18:48:41.185Z,15.90
2017-05-04T18:51:10.375Z,15.80
2017-05-04T18:53:39.249Z,15.80
2017-05-04T18:56:08.121Z,15.70
2017-05-04T18:58:37.762Z,15.60
2017-05-04T19:01:06.641Z,15.50
2017-05-04T19:03:35.844Z,15.40
2017-05-04T19:06:04.719Z,15.40
2017-05-04T19:08:33.593Z,15.40
2017-05-04T19:11:03.233Z,15.20
2017-05-04T19:13:32.106Z,15.20
2017-05-04T19:16:00.981Z,15.10
2017-05-04T19:18:30.933Z,15.00
2017-05-04T19:20:59.808Z,15.00
2017-05-04T19:23:28.685Z,14.90
2017-05-04T19:25:58.429Z,14.80
2017-05-04T19:28:27.301Z,14.70
2017-05-04T19:30:56.183Z,14.70
2017-05-04T19:33:25.821Z,14.50
2017-05-04T19:35:54.696Z,14.30
2017-05-04T19:38:23.904Z,14.10
2017-05-04T19:40:52.789Z,13.90
2017-05-04T19:43:21.673Z,13.80
2017-05-04T19:45:50.677Z,13.70
2017-05-04T19:48:19.559Z,13.60
2017-05-04T19:50:48.433Z,13.60
2017-05-04T19:53:17.353Z,13.50
2017-05-04T19:55:46.238Z,13.40
2017-05-04T19:58:15.117Z,13.30
2017-05-04T20:00:44.122Z,13.30
2017-05-04T20:03:12.993Z,13.20
2017-05-04T20:05:41.869Z,13.10
2017-05-04T20:08:11.512Z,13.00
2017-05-04T20:10:40.397Z,13.00
2017-05-04T20:13:09.269Z,13.00
2017-05-04T20:15:38.494Z,12.90
2017-05-04T20:18:07.372Z,12.80
2017-05-04T20:20:36.249Z,12.70
2017-05-04T20:23:05.172Z,12.60
2017-05-04T20:25:34.049Z,12.50
2017-05-04T20:28:02.928Z,12.50
2017-05-04T20:30:31.832Z,12.60
2017-05-04T20:33:00.718Z,12.50
2017-05-04T20:35:29.909Z,12.50
2017-05-04T20:37:58.798Z,12.50
2017-05-04T20:40:27.674Z,12.50
2017-05-04T20:42:57.416Z,12.50
2017-05-04T20:45:26.289Z,12.50
2017-05-04T20:47:55.168Z,12.40
2017-05-04T20:50:24.392Z,12.40
2017-05-04T20:52:53.285Z,12.30
2017-05-04T20:55:22.169Z,12.30
2017-05-04T20:57:51.129Z,12.20
2017-05-04T21:00:20.747Z,12.10
2017-05-04T21:02:49.674Z,12.10
2017-05-04T21:05:18.633Z,12.10
2017-05-04T21:07:47.512Z,12.10
2017-05-04T21:10:17.208Z,12.10
2017-05-04T21:12:46.096Z,12.00
2017-05-04T21:15:14.989Z,12.00
2017-05-04T21:17:44.087Z,12.00
2017-05-04T21:20:12.965Z,12.10
2017-05-04T21:22:41.846Z,12.10
2017-05-04T21:25:10.806Z,12.00
2017-05-04T21:27:39.674Z,11.90
2017-05-04T21:30:08.582Z,11.90
2017-05-04T21:32:37.490Z,11.90
2017-05-04T21:35:06.369Z,11.90
2017-05-04T21:37:35.653Z,11.80
2017-05-04T21:40:04.537Z,11.80
2017-05-04T21:42:33.413Z,11.80
2017-05-04T21:45:03.067Z,11.70
2017-05-04T21:47:31.960Z,11.60
2017-05-04T21:50:00.825Z,11.60
2017-05-04T21:52:29.735Z,11.60
2017-05-04T21:54:58.616Z,11.60
2017-05-04T21:57:27.494Z,11.50
2017-05-04T21:59:56.402Z,11.50
2017-05-04T22:02:25.279Z,11.60
2017-05-04T22:04:54.168Z,11.50
2017-05-04T22:07:23.085Z,11.50
2017-05-04T22:09:51.963Z,11.50
2017-05-04T22:12:20.832Z,11.40
2017-05-04T22:14:49.756Z,11.50
2017-05-04T22:17:18.633Z,11.50
2017-05-04T22:19:47.506Z,11.50
2017-05-04T22:22:16.514Z,11.50
2017-05-04T22:24:45.390Z,11.50
2017-05-04T22:27:14.265Z,11.50
2017-05-04T22:29:43.909Z,11.40
2017-05-04T22:32:12.916Z,11.50
2017-05-04T22:34:41.797Z,11.40
2017-05-04T22:37:10.679Z,11.40
2017-05-04T22:39:39.579Z,11.40
2017-05-04T22:42:08.457Z,11.40
2017-05-04T22:44:37.332Z,11.30
2017-05-04T22:47:06.232Z,11.30
2017-05-04T22:49:35.142Z,11.30
2017-05-04T22:52:04.029Z,11.40
2017-05-04T22:54:32.932Z,11.40
2017-05-04T22:57:01.809Z,11.50
2017-05-04T22:59:30.688Z,11.50
2017-05-04T23:01:59.605Z,11.40
2017-05-04T23:04:28.472Z,11.40
2017-05-04T23:06:57.352Z,11.40
2017-05-04T23:09:26.266Z,11.50
2017-05-04T23:11:55.150Z,11.50
2017-05-04T23:14:24.026Z,11.50
2017-05-04T23:16:53.029Z,11.50
2017-05-04T23:19:21.900Z,11.40
2017-05-04T23:21:50.783Z,11.50
2017-05-04T23:24:20.531Z,11.40
2017-05-04T23:26:49.471Z,11.40
2017-05-04T23:29:18.389Z,11.40
2017-05-04T23:31:47.556Z,11.30
2017-05-04T23:34:16.440Z,11.30
2017-05-04T23:36:45.315Z,11.30
2017-05-04T23:39:14.321Z,11.40
2017-05-04T23:41:43.202Z,11.40
2017-05-04T23:44:12.090Z,11.40
2017-05-04T23:46:41.089Z,11.30
2017-05-04T23:49:09.964Z,11.30
2017-05-04T23:51:38.845Z,11.20
2017-05-04T23:54:07.858Z,11.20
2017-05-04T23:56:36.732Z,11.20
2017-05-04T23:59:05.609Z,11.10
